Time;durP1;ratioP1;P1;durP2;ratioP2;P2;SDS_P1;SDS_P2;PMS_P1;PMS_P2;Temp;Humidity;BMP_temperature;BMP_pressure;BME280_temperature;BME280_humidity;BME280_pressure;Samples;Min_cycle;Max_cycle;Signal;HPM_P1;HPM_P2
2023/03/31 00:01:26;;;;;;;;;;;;;;;12.73;26.58;98911.03;4998290;28;19928;-81
2023/03/31 00:04:00;;;;;;;;;;;;;;;12.73;27.03;98908.41;4998642;28;19918;-81
2023/03/31 00:06:26;;;;;;;;;;;;;;;12.73;27.21;98913.66;4997717;28;20273;-81
2023/03/31 00:08:52;;;;;;;;;;;;;;;12.72;27.29;98907.59;4982145;28;20071;-81
2023/03/31 00:11:18;;;;;;;;;;;;;;;12.70;27.48;98908.66;5016075;28;19975;-82
2023/03/31 00:13:43;;;;;;;;;;;;;;;12.69;27.35;98905.22;4998468;28;19926;-82
2023/03/31 00:16:08;;;;;;;;;;;;;;;12.69;27.50;98909.66;4982359;28;20056;-81
2023/03/31 00:18:34;;;;;;;;;;;;;;;12.67;27.92;98897.50;4998674;28;20364;-81
2023/03/31 00:21:13;;;;;;;;;;;;;;;12.68;27.97;98908.81;4981571;28;19924;-82
2023/03/31 00:23:39;;;;;;;;;;;;;;;12.69;27.92;98901.78;4999955;28;19917;-81
2023/03/31 00:26:04;;;;;;;;;;;;;;;12.69;27.93;98904.41;4998724;28;19936;-82
2023/03/31 00:28:30;;;;;;;;;;;;;;;12.67;28.53;98901.91;5000670;28;19917;-82
2023/03/31 00:30:59;;;;;;;;;;;;;;;12.66;28.75;98895.81;5000135;28;19925;-82
2023/03/31 00:33:25;;;;;;;;;;;;;;;12.64;28.72;98891.69;4997229;28;20392;-81
2023/03/31 00:35:50;;;;;;;;;;;;;;;12.64;28.91;98894.31;4997504;28;19918;-79
2023/03/31 00:38:16;;;;;;;;;;;;;;;12.62;29.00;98888.38;4996779;28;19918;-80
2023/03/31 00:40:46;;;;;;;;;;;;;;;12.59;28.83;98886.84;4980094;28;20305;-81
2023/03/31 00:43:19;;;;;;;;;;;;;;;12.57;29.04;98894.00;4997073;28;19917;-80
2023/03/31 00:45:45;;;;;;;;;;;;;;;12.57;29.23;98890.53;4997160;28;19921;-82
2023/03/31 00:48:12;;;;;;;;;;;;;;;12.54;29.44;98886.38;5014445;28;19924;-81
2023/03/31 00:50:46;;;;;;;;;;;;;;;12.52;29.42;98888.28;4996524;28;20281;-80
2023/03/31 00:53:13;;;;;;;;;;;;;;;12.51;29.65;98886.63;5014582;28;20315;-82
2023/03/31 00:55:40;;;;;;;;;;;;;;;12.49;29.68;98884.16;4996603;28;19918;-82
2023/03/31 00:58:05;;;;;;;;;;;;;;;12.49;29.43;98881.53;4980826;28;19929;-82
2023/03/31 01:00:31;;;;;;;;;;;;;;;12.48;29.90;98868.56;4997914;28;20396;-82
2023/03/31 01:02:57;;;;;;;;;;;;;;;12.46;29.97;98862.59;4997168;28;20403;-82
2023/03/31 01:05:37;;;;;;;;;;;;;;;12.45;30.04;98866.19;4996967;28;20510;-82
2023/03/31 01:08:04;;;;;;;;;;;;;;;12.41;30.22;98864.78;4981036;28;19917;-82
2023/03/31 01:10:30;;;;;;;;;;;;;;;12.38;30.27;98859.78;5014397;28;19925;-83
2023/03/31 01:12:55;;;;;;;;;;;;;;;12.37;30.33;98856.34;4980581;28;19917;-82
2023/03/31 01:15:20;;;;;;;;;;;;;;;12.34;30.08;98845.31;4997177;28;19925;-82
2023/03/31 01:17:46;;;;;;;;;;;;;;;12.30;30.60;98845.56;4980965;28;20351;-82
2023/03/31 01:20:40;;;;;;;;;;;;;;;12.26;30.36;98840.69;5003874;28;19925;-83
2023/03/31 01:23:06;;;;;;;;;;;;;;;12.22;30.48;98829.63;5005498;28;19917;-84
2023/03/31 01:25:50;;;;;;;;;;;;;;;12.19;30.74;98829.03;4929843;28;1928194;-81
2023/03/31 01:28:32;;;;;;;;;;;;;;;12.17;30.49;98826.56;4997377;28;20301;-83
2023/03/31 01:30:58;;;;;;;;;;;;;;;12.13;30.62;98817.31;4981016;28;20381;-83
2023/03/31 01:33:29;;;;;;;;;;;;;;;12.07;30.65;98809.97;5014902;28;19922;-83
2023/03/31 01:36:07;;;;;;;;;;;;;;;12.05;30.77;98811.84;5014588;28;19949;-82
2023/03/31 01:38:47;;;;;;;;;;;;;;;12.03;30.87;98811.16;4997354;28;19925;-85
2023/03/31 01:41:25;;;;;;;;;;;;;;;11.98;30.99;98805.47;5014657;28;20008;-85
2023/03/31 01:43:58;;;;;;;;;;;;;;;11.96;31.22;98807.38;4997435;28;19921;-84
2023/03/31 01:46:27;;;;;;;;;;;;;;;11.89;31.27;98797.38;4996669;28;19918;-84
2023/03/31 01:48:55;;;;;;;;;;;;;;;11.85;31.49;98800.38;4981112;28;20307;-84
2023/03/31 01:51:23;;;;;;;;;;;;;;;11.80;31.54;98805.97;5014939;28;19925;-85
2023/03/31 01:54:15;;;;;;;;;;;;;;;11.74;31.63;98798.59;4997132;28;19924;-85
2023/03/31 01:56:42;;;;;;;;;;;;;;;11.68;31.93;98797.31;5005317;28;19943;-84
2023/03/31 01:59:12;;;;;;;;;;;;;;;11.63;31.86;98801.25;4980432;28;20296;-83
2023/03/31 02:01:37;;;;;;;;;;;;;;;11.59;32.03;98790.19;4996442;28;19925;-84
2023/03/31 02:04:14;;;;;;;;;;;;;;;11.55;31.96;98786.16;5013700;28;19922;-85
2023/03/31 02:06:40;;;;;;;;;;;;;;;11.50;32.17;98780.50;4996666;28;19917;-85
2023/03/31 02:09:09;;;;;;;;;;;;;;;11.48;32.44;98779.75;4995454;28;19918;-85
2023/03/31 02:11:35;;;;;;;;;;;;;;;11.45;32.72;98780.00;4980415;28;19922;-87
2023/03/31 02:14:00;;;;;;;;;;;;;;;11.41;32.95;98789.88;4996868;28;20889;-86
2023/03/31 02:16:26;;;;;;;;;;;;;;;11.39;33.09;98790.00;4980434;28;19917;-85
2023/03/31 02:19:01;;;;;;;;;;;;;;;11.37;33.27;98791.91;4980386;28;19917;-84
2023/03/31 02:21:33;;;;;;;;;;;;;;;11.34;33.36;98786.09;4981756;28;19921;-85
2023/03/31 02:24:03;;;;;;;;;;;;;;;11.29;33.48;98789.06;4996392;28;19918;-84
2023/03/31 02:26:30;;;;;;;;;;;;;;;11.26;33.73;98788.47;4996098;28;19929;-85
2023/03/31 02:28:55;;;;;;;;;;;;;;;11.23;33.82;98792.97;4980461;28;19925;-84
2023/03/31 02:31:21;;;;;;;;;;;;;;;11.23;33.96;98789.53;4980133;28;19921;-84
2023/03/31 02:33:46;;;;;;;;;;;;;;;11.19;34.10;98794.16;5013981;28;19969;-88
2023/03/31 02:36:12;;;;;;;;;;;;;;;11.17;34.03;98774.34;4996560;28;19953;-86
2023/03/31 02:39:00;;;;;;;;;;;;;;;11.17;34.45;98771.75;4996689;28;20355;-85
2023/03/31 02:41:26;;;;;;;;;;;;;;;11.15;34.50;98779.69;5003745;28;19951;-85
2023/03/31 02:43:51;;;;;;;;;;;;;;;11.14;34.41;98778.03;4996018;28;19918;-84
2023/03/31 02:46:16;;;;;;;;;;;;;;;11.14;34.54;98782.44;5013793;28;20388;-84
2023/03/31 02:48:42;;;;;;;;;;;;;;;11.11;34.65;98786.09;4996355;28;19952;-83
2023/03/31 02:51:08;;;;;;;;;;;;;;;11.10;34.73;98784.44;4996003;28;19917;-83
2023/03/31 02:53:52;;;;;;;;;;;;;;;11.09;34.77;98782.78;4995896;28;19929;-83
2023/03/31 02:56:17;;;;;;;;;;;;;;;11.08;34.68;98785.50;4995989;28;19963;-85
2023/03/31 02:58:43;;;;;;;;;;;;;;;11.08;34.82;98790.72;5013424;28;20008;-83
2023/03/31 03:01:15;;;;;;;;;;;;;;;11.05;34.89;98791.78;4995913;28;19917;-84
2023/03/31 03:03:42;;;;;;;;;;;;;;;11.05;34.86;98797.00;5013592;28;19924;-84
2023/03/31 03:06:13;;;;;;;;;;;;;;;11.04;34.94;98788.34;4995664;28;20016;-84
2023/03/31 03:08:54;;;;;;;;;;;;;;;11.02;35.10;98795.50;4996068;28;20001;-83
2023/03/31 03:11:22;;;;;;;;;;;;;;;11.04;35.36;98797.97;5013192;28;19918;-83
2023/03/31 03:13:59;;;;;;;;;;;;;;;11.05;35.16;98797.00;5012761;28;20405;-84
2023/03/31 03:16:29;;;;;;;;;;;;;;;11.03;35.31;98791.91;4980289;28;20016;-84
2023/03/31 03:18:58;;;;;;;;;;;;;;;11.04;35.28;98796.19;5008547;28;19929;-84
2023/03/31 03:21:23;;;;;;;;;;;;;;;11.05;35.51;98799.63;4979312;28;19917;-84
2023/03/31 03:23:48;;;;;;;;;;;;;;;11.05;35.34;98783.94;4995257;28;20017;-84
2023/03/31 03:26:15;;;;;;;;;;;;;;;11.06;35.52;98776.97;4978414;28;19926;-85
2023/03/31 03:28:40;;;;;;;;;;;;;;;11.06;35.56;98769.94;4979344;28;20012;-85
2023/03/31 03:31:08;;;;;;;;;;;;;;;11.07;35.71;98771.63;4978800;28;20404;-89
2023/03/31 03:33:33;;;;;;;;;;;;;;;11.07;35.62;98771.63;4979675;28;19968;-88
2023/03/31 03:35:58;;;;;;;;;;;;;;;11.09;35.64;98771.50;4996136;28;19917;-88
2023/03/31 03:38:24;;;;;;;;;;;;;;;11.10;35.71;98776.63;4999602;28;19922;-82
2023/03/31 03:40:51;;;;;;;;;;;;;;;11.15;38.52;98774.47;4998270;28;19940;-84
2023/03/31 03:43:17;;;;;;;;;;;;;;;11.18;39.09;98763.78;4995480;28;19953;-88
2023/03/31 03:45:46;;;;;;;;;;;;;;;11.56;54.94;98777.38;4995616;28;19964;-88
2023/03/31 03:48:11;;;;;;;;;;;;;;;11.70;50.04;98771.88;5012961;28;20369;-78
2023/03/31 03:50:37;;;;;;;;;;;;;;;11.65;44.96;98778.41;4995124;28;19917;-76
2023/03/31 03:53:02;;;;;;;;;;;;;;;11.57;42.59;98769.44;4995102;28;19944;-76
2023/03/31 03:55:27;;;;;;;;;;;;;;;11.55;41.05;98763.47;4995297;28;19924;-74
2023/03/31 03:57:53;;;;;;;;;;;;;;;11.55;40.09;98757.41;5012557;28;20296;-78
2023/03/31 04:00:18;;;;;;;;;;;;;;;11.55;40.93;98750.41;5012915;28;20380;-75
2023/03/31 04:02:44;;;;;;;;;;;;;;;11.80;44.69;98758.88;5004065;28;19922;-77
2023/03/31 04:05:09;;;;;;;;;;;;;;;11.79;42.82;98759.84;5012514;28;19917;-78
2023/03/31 04:07:34;;;;;;;;;;;;;;;11.75;42.09;98761.06;4978633;28;19917;-80
2023/03/31 04:10:00;;;;;;;;;;;;;;;11.71;40.99;98763.06;4994895;28;19922;-81
2023/03/31 04:12:25;;;;;;;;;;;;;;;11.67;39.89;98760.81;4995005;28;19917;-79
2023/03/31 04:14:50;;;;;;;;;;;;;;;11.62;39.09;98763.78;5012415;28;19921;-79
2023/03/31 04:17:16;;;;;;;;;;;;;;;11.59;38.80;98764.91;4978660;28;19918;-79
2023/03/31 04:19:41;;;;;;;;;;;;;;;11.57;38.84;98761.59;4994786;28;19918;-79
2023/03/31 04:22:10;;;;;;;;;;;;;;;11.55;38.45;98758.25;4978480;28;19917;-80
2023/03/31 04:24:37;;;;;;;;;;;;;;;11.56;38.24;98769.53;4978987;28;19922;-79
2023/03/31 04:27:06;;;;;;;;;;;;;;;11.54;38.31;98756.59;5014790;28;19928;-77
2023/03/31 04:29:32;;;;;;;;;;;;;;;11.53;37.85;98756.72;4982494;28;19922;-78
2023/03/31 04:31:57;;;;;;;;;;;;;;;11.52;37.49;98758.47;4998139;28;19921;-83
2023/03/31 04:34:25;;;;;;;;;;;;;;;11.54;37.61;98758.34;4998769;28;19949;-82
2023/03/31 04:36:50;;;;;;;;;;;;;;;11.64;41.40;98761.91;4998874;28;19918;-78
2023/03/31 04:39:16;;;;;;;;;;;;;;;11.64;41.16;98748.84;4998096;28;20372;-82
2023/03/31 04:41:41;;;;;;;;;;;;;;;11.61;40.51;98754.31;4998339;28;19924;-79
2023/03/31 04:44:07;;;;;;;;;;;;;;;11.57;39.85;98753.75;4998651;28;19918;-78
2023/03/31 04:46:32;;;;;;;;;;;;;;;11.55;39.49;98752.19;4997983;28;19918;-79
2023/03/31 04:48:58;;;;;;;;;;;;;;;11.57;39.09;98747.66;4985269;28;20016;-92
2023/03/31 04:51:23;;;;;;;;;;;;;;;11.57;38.92;98747.66;4990374;28;20373;-85
2023/03/31 04:53:49;;;;;;;;;;;;;;;11.61;38.54;98745.63;4996212;28;19924;-85
2023/03/31 04:56:14;;;;;;;;;;;;;;;11.62;38.07;98748.13;5002237;28;19928;-85
2023/03/31 04:58:39;;;;;;;;;;;;;;;11.63;38.15;98748.97;5021225;28;19981;-85
2023/03/31 05:01:05;;;;;;;;;;;;;;;11.64;37.77;98742.75;5001085;28;19924;-85
2023/03/31 05:03:30;;;;;;;;;;;;;;;11.65;37.55;98747.03;5014166;28;20324;-85
2023/03/31 05:05:56;;;;;;;;;;;;;;;11.66;37.65;98739.06;4996169;28;20001;-84
2023/03/31 05:08:21;;;;;;;;;;;;;;;11.71;37.32;98744.75;4998139;28;20024;-85
2023/03/31 05:10:46;;;;;;;;;;;;;;;11.73;37.41;98740.25;5016522;28;19917;-86
2023/03/31 05:13:11;;;;;;;;;;;;;;;11.76;37.49;98736.53;5000864;28;19941;-85
2023/03/31 05:15:38;;;;;;;;;;;;;;;11.77;37.48;98731.19;5002498;28;20009;-88
2023/03/31 05:18:03;;;;;;;;;;;;;;;11.77;37.87;98730.38;5001195;28;19997;-87
2023/03/31 05:20:28;;;;;;;;;;;;;;;11.79;37.50;98735.47;5003979;28;19972;-87
2023/03/31 05:22:54;;;;;;;;;;;;;;;11.81;37.48;98731.75;5001409;28;19929;-90
2023/03/31 05:25:19;;;;;;;;;;;;;;;11.81;37.41;98723.09;5003314;28;20303;-89
2023/03/31 05:27:46;;;;;;;;;;;;;;;11.82;37.17;98725.59;4988028;28;19987;-90
2023/03/31 05:30:11;;;;;;;;;;;;;;;11.89;37.03;98721.53;4986780;28;19921;-88
2023/03/31 05:32:37;;;;;;;;;;;;;;;11.96;37.00;98714.03;4987156;28;19975;-90
2023/03/31 05:35:02;;;;;;;;;;;;;;;12.06;36.92;98716.72;5001666;28;19923;-89
2023/03/31 05:37:27;;;;;;;;;;;;;;;12.12;36.86;98713.59;4986237;28;19972;-89
2023/03/31 05:39:53;;;;;;;;;;;;;;;12.15;36.91;98707.28;4985747;28;20067;-88
2023/03/31 05:42:18;;;;;;;;;;;;;;;12.21;36.65;98699.75;5001241;28;20071;-88
2023/03/31 05:44:44;;;;;;;;;;;;;;;12.27;36.49;98706.22;5018347;28;20388;-88
2023/03/31 05:47:09;;;;;;;;;;;;;;;12.35;36.26;98719.53;4986521;28;19956;-88
2023/03/31 05:49:35;;;;;;;;;;;;;;;12.43;35.53;98708.38;5003932;28;20364;-88
2023/03/31 05:52:00;;;;;;;;;;;;;;;12.48;35.45;98711.47;4986304;28;20347;-88
2023/03/31 05:54:25;;;;;;;;;;;;;;;12.53;34.90;98700.59;5018426;28;19918;-90
2023/03/31 05:56:51;;;;;;;;;;;;;;;12.57;34.82;98702.00;4984416;28;19917;-88
2023/03/31 05:59:16;;;;;;;;;;;;;;;12.62;34.60;98700.66;5001125;28;19918;-88
2023/03/31 06:01:42;;;;;;;;;;;;;;;12.67;34.18;98708.13;4984285;28;19925;-88
2023/03/31 06:04:07;;;;;;;;;;;;;;;12.73;34.22;98707.59;5018448;28;19964;-88
2023/03/31 06:06:33;;;;;;;;;;;;;;;12.80;33.93;98707.88;5018881;28;19991;-89
2023/03/31 06:08:59;;;;;;;;;;;;;;;12.89;33.67;98714.97;5001669;28;19925;-87
2023/03/31 06:11:24;;;;;;;;;;;;;;;12.95;33.51;98706.56;4983815;28;19921;-88
2023/03/31 06:13:49;;;;;;;;;;;;;;;13.02;33.14;98702.44;4983715;28;20011;-89
2023/03/31 06:16:16;;;;;;;;;;;;;;;13.12;32.93;98704.25;4983009;28;19964;-89
2023/03/31 06:18:41;;;;;;;;;;;;;;;13.13;32.92;98704.13;5018547;28;19917;-89
2023/03/31 06:21:06;;;;;;;;;;;;;;;13.11;32.92;98702.59;4989248;28;19988;-90
2023/03/31 06:23:32;;;;;;;;;;;;;;;13.09;32.85;98696.66;5006677;28;19985;-91
2023/03/31 06:26:01;;;;;;;;;;;;;;;13.13;32.48;98698.88;5005034;28;19929;-87
2023/03/31 06:28:27;;;;;;;;;;;;;;;13.14;32.45;98700.56;4983103;28;19928;-89
2023/03/31 06:30:58;;;;;;;;;;;;;;;13.12;32.74;98705.09;5021454;28;20428;-88
2023/03/31 06:33:24;;;;;;;;;;;;;;;13.09;32.84;98699.28;5001916;28;19917;-89
2023/03/31 06:35:49;;;;;;;;;;;;;;;13.09;32.89;98700.09;4982724;28;20376;-88
2023/03/31 06:38:14;;;;;;;;;;;;;;;13.09;32.92;98691.44;4998588;28;19921;-87
2023/03/31 06:40:41;;;;;;;;;;;;;;;13.08;32.76;98695.84;5018021;28;19918;-87
2023/03/31 06:43:06;;;;;;;;;;;;;;;13.08;32.88;98693.22;4988904;28;19917;-89
2023/03/31 06:45:31;;;;;;;;;;;;;;;13.11;32.71;98698.19;5006749;28;20016;-86
2023/03/31 06:47:57;;;;;;;;;;;;;;;13.13;33.01;98701.50;5005333;28;20360;-87
2023/03/31 06:50:22;;;;;;;;;;;;;;;13.16;32.99;98690.75;5016849;28;19948;-88
2023/03/31 06:52:51;;;;;;;;;;;;;;;13.17;32.98;98684.56;5000115;28;19924;-89
2023/03/31 06:55:16;;;;;;;;;;;;;;;13.24;32.81;98678.78;5002327;28;19922;-90
2023/03/31 06:57:41;;;;;;;;;;;;;;;13.30;32.45;98683.47;5021738;28;20020;-88
2023/03/31 07:00:07;;;;;;;;;;;;;;;13.37;32.62;98674.94;4984895;28;19953;-90
2023/03/31 07:02:32;;;;;;;;;;;;;;;13.43;32.24;98678.84;4982718;28;19940;-88
2023/03/31 07:04:58;;;;;;;;;;;;;;;13.52;31.92;98677.16;4981084;28;19940;-86
2023/03/31 07:07:23;;;;;;;;;;;;;;;13.54;32.10;98670.00;4983015;28;20307;-86
2023/03/31 07:09:48;;;;;;;;;;;;;;;13.55;31.96;98683.00;4999536;28;19964;-87
2023/03/31 07:12:14;;;;;;;;;;;;;;;13.63;31.72;98682.31;5002151;28;20392;-86
2023/03/31 07:14:39;;;;;;;;;;;;;;;13.66;31.55;98689.06;5017843;28;19922;-87
2023/03/31 07:17:04;;;;;;;;;;;;;;;13.67;31.19;98680.22;5014918;28;19953;-87
2023/03/31 07:19:30;;;;;;;;;;;;;;;13.70;31.18;98683.38;5018094;28;19917;-88
2023/03/31 07:21:55;;;;;;;;;;;;;;;13.74;31.12;98689.19;4983094;28;19918;-87
2023/03/31 07:24:21;;;;;;;;;;;;;;;13.78;31.22;98693.19;5016873;28;19975;-87
2023/03/31 07:26:46;;;;;;;;;;;;;;;13.78;30.99;98687.13;4983658;28;19983;-88
2023/03/31 07:29:11;;;;;;;;;;;;;;;13.80;31.14;98679.94;5000085;28;19995;-90
2023/03/31 07:31:37;;;;;;;;;;;;;;;13.80;30.98;98674.69;5000219;28;19917;-90
2023/03/31 07:34:02;;;;;;;;;;;;;;;13.77;31.01;98665.28;4984671;28;19918;-88
2023/03/31 07:36:27;;;;;;;;;;;;;;;13.80;30.78;98666.81;4998733;28;20305;-87
2023/03/31 07:38:53;;;;;;;;;;;;;;;13.78;31.08;98664.34;5000882;28;20351;-86
2023/03/31 07:41:19;;;;;;;;;;;;;;;13.81;30.89;98669.31;4998210;28;19924;-88
2023/03/31 07:43:44;;;;;;;;;;;;;;;13.85;30.59;98660.22;4999567;28;19957;-89
2023/03/31 07:46:16;;;;;;;;;;;;;;;13.88;30.82;98662.56;4997607;28;19918;-83
2023/03/31 07:48:42;;;;;;;;;;;;;;;13.89;30.60;98668.63;4979401;28;19924;-86
2023/03/31 07:51:08;;;;;;;;;;;;;;;13.88;30.67;98662.56;4995686;28;20031;-87
2023/03/31 07:53:33;;;;;;;;;;;;;;;13.87;30.48;98660.06;4997027;28;19961;-87
2023/03/31 07:55:58;;;;;;;;;;;;;;;13.88;30.53;98670.41;5014404;28;19918;-87
2023/03/31 07:58:24;;;;;;;;;;;;;;;13.93;30.85;98665.56;4980664;28;19921;-86
2023/03/31 08:00:49;;;;;;;;;;;;;;;13.99;30.67;98656.28;5014877;28;19917;-87
2023/03/31 08:03:15;;;;;;;;;;;;;;;13.99;30.51;98645.78;5017622;28;19917;-89
2023/03/31 08:05:40;;;;;;;;;;;;;;;14.08;30.25;98652.81;4999973;28;19918;-86
2023/03/31 08:08:05;;;;;;;;;;;;;;;14.16;30.00;98653.94;4999780;28;19918;-87
2023/03/31 08:10:31;;;;;;;;;;;;;;;14.21;30.01;98657.75;5018394;28;19918;-87
2023/03/31 08:12:56;;;;;;;;;;;;;;;14.32;29.90;98656.78;5001319;28;19925;-88
2023/03/31 08:15:21;;;;;;;;;;;;;;;14.51;30.13;98653.25;5000599;28;19964;-86
2023/03/31 08:17:47;;;;;;;;;;;;;;;14.84;29.74;98636.13;5018313;28;19985;-86
2023/03/31 08:20:12;;;;;;;;;;;;;;;15.32;29.03;98628.91;4985003;28;19921;-88
2023/03/31 08:22:37;;;;;;;;;;;;;;;15.77;28.57;98624.56;5000753;28;19924;-86
2023/03/31 08:25:04;;;;;;;;;;;;;;;17.12;27.14;98612.53;4999513;28;19925;-87
2023/03/31 08:27:31;;;;;;;;;;;;;;;17.25;26.75;98608.59;4998552;28;19944;-86
2023/03/31 08:29:57;;;;;;;;;;;;;;;17.17;26.85;98601.47;5017914;28;19922;-88
2023/03/31 08:32:23;;;;;;;;;;;;;;;17.13;26.94;98600.19;5000667;28;19925;-85
2023/03/31 08:34:48;;;;;;;;;;;;;;;17.18;26.60;98603.16;5000281;28;19965;-88
2023/03/31 08:37:13;;;;;;;;;;;;;;;17.06;26.52;98602.63;5019626;28;20104;-88
2023/03/31 08:39:39;;;;;;;;;;;;;;;17.13;26.18;98589.63;5017682;28;19925;-86
2023/03/31 08:42:10;;;;;;;;;;;;;;;17.10;26.47;98584.69;5016278;28;19974;-84
2023/03/31 08:44:41;;;;;;;;;;;;;;;17.16;26.05;98587.47;4998986;28;19967;-84
2023/03/31 08:47:09;;;;;;;;;;;;;;;17.45;25.88;98588.00;4999571;28;19917;-88
2023/03/31 08:49:41;;;;;;;;;;;;;;;17.57;25.96;98593.75;5002263;28;20047;-89
2023/03/31 08:52:09;;;;;;;;;;;;;;;17.92;25.02;98581.22;5007032;28;19917;-93
2023/03/31 08:54:38;;;;;;;;;;;;;;;17.92;25.47;98576.78;5003545;28;20355;-89
2023/03/31 08:57:04;;;;;;;;;;;;;;;18.29;25.10;98591.19;5002902;28;19977;-90
2023/03/31 08:59:30;;;;;;;;;;;;;;;18.89;24.41;98578.41;5002939;28;19921;-89
2023/03/31 09:01:59;;;;;;;;;;;;;;;19.62;23.63;98577.03;5002138;28;20015;-92
2023/03/31 09:04:33;;;;;;;;;;;;;;;19.96;23.09;98574.97;4986579;28;19941;-90
2023/03/31 09:07:02;;;;;;;;;;;;;;;19.98;23.75;98580.88;5004216;28;19929;-90
2023/03/31 09:09:46;;;;;;;;;;;;;;;19.79;23.60;98576.94;5023479;28;19922;-85
2023/03/31 09:12:32;;;;;;;;;;;;;;;19.92;23.41;98565.72;5017199;28;20347;-86
2023/03/31 09:15:00;;;;;;;;;;;;;;;20.16;23.33;98560.16;4997629;28;19975;-84
2023/03/31 09:17:33;;;;;;;;;;;;;;;20.44;22.84;98543.59;4998901;28;19975;-85
2023/03/31 09:20:12;;;;;;;;;;;;;;;21.27;22.09;98548.59;4983439;28;19917;-87
2023/03/31 09:22:47;;;;;;;;;;;;;;;21.62;21.90;98543.38;4998898;28;19949;-86
2023/03/31 09:25:25;;;;;;;;;;;;;;;21.25;22.15;98535.50;4999141;28;19917;-86
2023/03/31 09:27:54;;;;;;;;;;;;;;;21.22;22.08;98535.03;4999674;28;19960;-85
2023/03/31 09:30:29;;;;;;;;;;;;;;;20.94;22.51;98535.81;4987715;28;19924;-83
2023/03/31 09:33:11;;;;;;;;;;;;;;;20.66;22.90;98520.63;4988617;28;19992;-86
2023/03/31 09:35:36;;;;;;;;;;;;;;;20.68;23.11;98523.06;5007693;28;19922;-87
2023/03/31 09:38:02;;;;;;;;;;;;;;;20.67;22.87;98522.28;5003042;28;19918;-86
2023/03/31 09:40:27;;;;;;;;;;;;;;;20.67;23.35;98522.28;5018988;28;19947;-87
2023/03/31 09:43:00;;;;;;;;;;;;;;;20.60;23.55;98511.56;5001021;28;19917;-88
2023/03/31 09:45:25;;;;;;;;;;;;;;;20.55;23.53;98515.78;5001025;28;19918;-88
2023/03/31 09:47:51;;;;;;;;;;;;;;;20.49;23.68;98514.69;5018251;28;19923;-83
2023/03/31 09:50:17;;;;;;;;;;;;;;;20.37;24.15;98505.59;4986380;28;19917;-90
2023/03/31 09:52:43;;;;;;;;;;;;;;;20.28;24.13;98502.19;4986266;28;19961;-89
2023/03/31 09:55:14;;;;;;;;;;;;;;;20.13;24.41;98506.69;5021048;28;20304;-90
2023/03/31 09:57:39;;;;;;;;;;;;;;;20.09;24.58;98493.00;5002845;28;19918;-91
2023/03/31 10:00:15;;;;;;;;;;;;;;;20.07;24.57;98497.66;5017326;28;19917;-88
2023/03/31 10:03:01;;;;;;;;;;;;;;;20.01;24.84;98488.59;5021861;28;19940;-88
2023/03/31 10:05:36;;;;;;;;;;;;;;;19.94;25.00;98484.22;5020633;28;19973;-90
2023/03/31 10:08:31;;;;;;;;;;;;;;;19.89;25.10;98490.06;5005436;28;19950;-89
2023/03/31 10:10:56;;;;;;;;;;;;;;;19.74;25.32;98479.47;4940341;29;20512;-89
2023/03/31 10:13:23;;;;;;;;;;;;;;;19.55;25.81;98475.53;4941259;29;19919;-90
2023/03/31 10:15:52;;;;;;;;;;;;;;;19.39;26.15;98454.50;4910997;29;20001;-87
2023/03/31 10:18:18;;;;;;;;;;;;;;;19.20;26.71;98464.59;4922087;29;19919;-88
2023/03/31 10:20:45;;;;;;;;;;;;;;;19.13;26.80;98464.50;4907852;29;19941;-89
2023/03/31 10:23:15;;;;;;;;;;;;;;;19.05;27.22;98458.44;4909096;29;19925;-90
2023/03/31 10:25:40;;;;;;;;;;;;;;;19.16;27.14;98453.56;4907875;29;19955;-91
2023/03/31 10:28:09;;;;;;;;;;;;;;;19.38;26.99;98456.31;4926995;29;19986;-89
2023/03/31 10:30:36;;;;;;;;;;;;;;;19.78;26.87;98454.28;4928067;29;19973;-90
2023/03/31 10:33:12;;;;;;;;;;;;;;;19.98;27.26;98446.59;4926529;29;19923;-86
2023/03/31 10:35:37;;;;;;;;;;;;;;;20.14;27.03;98434.97;4905206;29;20019;-87
2023/03/31 10:38:16;;;;;;;;;;;;;;;20.19;26.81;98431.75;4921786;29;19978;-88
2023/03/31 10:40:49;;;;;;;;;;;;;;;20.28;26.83;98424.53;4921378;29;19919;-86
2023/03/31 10:43:15;;;;;;;;;;;;;;;20.41;26.71;98419.34;4921680;29;19958;-85
2023/03/31 10:45:42;;;;;;;;;;;;;;;20.52;26.74;98418.84;4904433;29;20310;-86
2023/03/31 10:48:15;;;;;;;;;;;;;;;20.49;26.63;98419.22;4988089;28;19918;-86
2023/03/31 10:50:41;;;;;;;;;;;;;;;20.40;26.51;98418.53;4997628;28;20005;-85
2023/03/31 10:53:10;;;;;;;;;;;;;;;20.41;26.72;98412.25;4997680;28;19984;-88
2023/03/31 10:55:48;;;;;;;;;;;;;;;20.52;26.62;98402.94;4998822;28;19928;-86
2023/03/31 10:58:27;;;;;;;;;;;;;;;20.63;26.70;98408.78;4997627;28;19918;-88
2023/03/31 11:01:13;;;;;;;;;;;;;;;20.73;26.68;98394.22;4997064;28;20454;-84
2023/03/31 11:03:59;;;;;;;;;;;;;;;20.81;26.76;98384.47;4917510;29;19958;-87
2023/03/31 11:06:40;;;;;;;;;;;;;;;20.83;26.65;98385.13;4902936;29;20013;-85
2023/03/31 11:09:17;;;;;;;;;;;;;;;20.89;26.89;98394.94;4915385;29;19952;-82
2023/03/31 11:11:55;;;;;;;;;;;;;;;20.93;26.66;98388.25;4915593;29;19919;-86
2023/03/31 11:14:26;;;;;;;;;;;;;;;20.97;26.98;98378.91;4899405;29;20000;-86
2023/03/31 11:17:10;;;;;;;;;;;;;;;21.00;26.72;98378.50;4916247;29;19988;-90
2023/03/31 11:19:38;;;;;;;;;;;;;;;20.96;26.36;98374.59;4916188;29;19919;-84
2023/03/31 11:22:26;;;;;;;;;;;;;;;21.05;26.33;98359.34;4915590;29;20398;-85
2023/03/31 11:25:14;;;;;;;;;;;;;;;21.11;26.46;98345.28;4908190;29;20428;-84
2023/03/31 11:27:40;;;;;;;;;;;;;;;21.06;26.77;98343.25;4859333;29;19935;-84
2023/03/31 11:30:06;;;;;;;;;;;;;;;21.02;26.81;98333.22;4858711;29;19924;-85
2023/03/31 11:32:40;;;;;;;;;;;;;;;21.01;26.79;98335.03;4859110;29;20373;-85
2023/03/31 11:35:14;;;;;;;;;;;;;;;20.99;27.15;98325.63;4858763;29;19924;-85
2023/03/31 11:37:53;;;;;;;;;;;;;;;20.98;27.24;98308.88;4862536;29;19924;-87
2023/03/31 11:40:26;;;;;;;;;;;;;;;20.69;27.38;98310.72;4878714;29;20391;-85
2023/03/31 11:42:56;;;;;;;;;;;;;;;20.61;27.50;98306.34;4920926;29;20391;-87
2023/03/31 11:45:26;;;;;;;;;;;;;;;20.71;27.55;98279.53;4919542;29;19971;-85
2023/03/31 11:47:52;;;;;;;;;;;;;;;20.74;27.92;98297.69;4919333;29;19926;-85
2023/03/31 11:50:21;;;;;;;;;;;;;;;20.78;27.69;98306.91;4918290;29;19919;-88
2023/03/31 11:52:56;;;;;;;;;;;;;;;20.84;27.58;98302.69;4920136;29;19923;-87
2023/03/31 11:55:21;;;;;;;;;;;;;;;20.75;27.82;98294.03;4920171;29;19966;-84
2023/03/31 11:57:49;;;;;;;;;;;;;;;20.70;28.18;98288.50;4920559;29;19919;-86
2023/03/31 12:00:26;;;;;;;;;;;;;;;20.62;28.21;98285.97;4902774;29;20000;-90
2023/03/31 12:02:53;;;;;;;;;;;;;;;20.69;28.14;98286.06;4902964;29;19919;-86
2023/03/31 12:05:19;;;;;;;;;;;;;;;20.80;28.23;98276.75;4981599;28;19918;-84
2023/03/31 12:07:47;;;;;;;;;;;;;;;20.85;28.22;98284.94;4999085;28;19921;-85
2023/03/31 12:10:20;;;;;;;;;;;;;;;20.91;28.17;98276.19;5000644;28;19918;-88
2023/03/31 12:12:48;;;;;;;;;;;;;;;20.89;28.24;98271.09;5017722;28;20404;-85
2023/03/31 12:15:20;;;;;;;;;;;;;;;20.90;28.46;98279.84;4984518;28;19917;-84
2023/03/31 12:17:46;;;;;;;;;;;;;;;20.99;28.35;98276.03;4999185;28;19922;-85
2023/03/31 12:20:14;;;;;;;;;;;;;;;21.03;28.58;98273.81;4999504;28;20373;-85
2023/03/31 12:22:43;;;;;;;;;;;;;;;21.08;28.48;98266.06;4983206;28;20400;-86
2023/03/31 12:25:15;;;;;;;;;;;;;;;21.08;28.47;98266.91;4998246;28;19917;-85
2023/03/31 12:27:40;;;;;;;;;;;;;;;21.11;28.32;98258.56;4982503;28;19932;-85
2023/03/31 12:30:13;;;;;;;;;;;;;;;21.24;28.52;98256.97;4983347;28;19922;-87
2023/03/31 12:32:39;;;;;;;;;;;;;;;21.31;28.18;98263.13;4999713;28;19917;-86
2023/03/31 12:35:19;;;;;;;;;;;;;;;21.39;28.43;98264.78;5016639;28;20464;-85
2023/03/31 12:37:45;;;;;;;;;;;;;;;21.43;28.60;98253.56;4999187;28;20332;-86
2023/03/31 12:40:28;;;;;;;;;;;;;;;21.49;28.40;98249.31;5016665;28;19917;-85
2023/03/31 12:42:58;;;;;;;;;;;;;;;21.41;28.39;98246.81;5016328;28;20373;-85
2023/03/31 12:45:26;;;;;;;;;;;;;;;21.35;28.62;98243.13;4998366;28;20387;-84
2023/03/31 12:48:10;;;;;;;;;;;;;;;21.20;28.22;98237.16;5016171;28;20008;-84
2023/03/31 12:50:46;;;;;;;;;;;;;;;20.99;28.57;98238.09;5016563;28;19921;-87
2023/03/31 12:53:21;;;;;;;;;;;;;;;20.99;28.84;98230.13;4999204;28;19921;-86
2023/03/31 12:55:47;;;;;;;;;;;;;;;20.93;28.91;98229.06;4999322;28;19917;-89